Providence, Rhode Island
Traffic Map
Current Weather Conditions
Providence, Rhode Island
Overcast
Overcast

Feels Like: 2°
Wind Chill: Ceiling: 10000
Heat Index: Visibility: 10mi
Dew Point: Wind: 7mph
Humidity: 79% Direction: 260° (W)
Pressure: 29.81in Gusts: 0mph
Raw Report DataKPVD 041551Z 26006KT 10SM FEW015 OVC100 04/01 A2981 RMK AO2 SLP094 T00440011
Traffic Incident Summary
Active as of:
Severity:
Category:
InformationThere was an issue retrieving the traffic information for this location. Please try a different location or try again shortly.
Advertisements
Track Severe Weather on mobile